Time;durP1;ratioP1;P1;durP2;ratioP2;P2;SDS_P1;SDS_P2;PMS_P1;PMS_P2;Temp;Humidity;BMP_temperature;BMP_pressure;BME280_temperature;BME280_humidity;BME280_pressure;Samples;Min_cycle;Max_cycle;Signal;HPM_P1;HPM_P2
2021/10/04 00:00:47;;;;;;;5.28;4.70;;;;;;;19.61;73.67;100672.16;5093023;28;20098;-72
2021/10/04 00:03:15;;;;;;;4.47;4.07;;;;;;;19.69;73.07;100673.69;5094543;28;20039;-71
2021/10/04 00:05:41;;;;;;;5.20;4.80;;;;;;;19.68;73.54;100666.44;5092698;28;20040;-71
2021/10/04 00:08:06;;;;;;;4.68;4.28;;;;;;;19.62;72.78;100670.94;5093356;28;20364;-72
2021/10/04 00:10:38;;;;;;;5.00;4.55;;;;;;;19.65;73.45;100677.75;5092809;28;20538;-70
2021/10/04 00:13:06;;;;;;;5.18;4.22;;;;;;;19.67;72.76;100681.00;5092824;28;20121;-71
2021/10/04 00:15:38;;;;;;;4.53;4.22;;;;;;;19.64;72.87;100682.59;5092766;28;20527;-73
2021/10/04 00:18:05;;;;;;;6.70;4.22;;;;;;;19.64;73.08;100679.78;5092987;28;20401;-70
2021/10/04 00:20:34;;;;;;;4.68;4.35;;;;;;;19.60;73.77;100685.47;5092731;28;20032;-71
2021/10/04 00:23:03;;;;;;;4.70;4.38;;;;;;;19.55;73.88;100680.22;5092630;28;20110;-72
2021/10/04 00:25:31;;;;;;;4.97;4.47;;;;;;;19.60;73.53;100685.47;5092635;28;20031;-72
2021/10/04 00:27:57;;;;;;;4.43;4.03;;;;;;;19.56;73.79;100683.84;5092310;28;20028;-70
2021/10/04 00:30:26;;;;;;;6.45;4.40;;;;;;;19.54;73.42;100683.44;5092650;28;20035;-72
2021/10/04 00:32:55;;;;;;;6.25;4.70;;;;;;;19.54;73.55;100683.44;5092664;28;20111;-71
2021/10/04 00:35:25;;;;;;;5.00;4.50;;;;;;;19.60;73.57;100685.47;5092588;28;20024;-70
2021/10/04 00:37:52;;;;;;;5.22;4.80;;;;;;;19.55;73.40;100676.59;5091598;28;20118;-72
2021/10/04 00:40:27;;;;;;;4.53;4.20;;;;;;;19.50;73.93;100683.47;5075930;28;20085;-71
2021/10/04 00:42:56;;;;;;;4.35;3.95;;;;;;;19.52;72.94;100681.03;5093797;28;20032;-70
2021/10/04 00:45:26;;;;;;;4.57;4.18;;;;;;;19.46;73.84;100676.25;5092697;28;20035;-71
2021/10/04 00:47:52;;;;;;;4.32;3.97;;;;;;;19.45;73.96;100677.47;5075774;28;20028;-71
2021/10/04 00:50:22;;;;;;;4.65;4.30;;;;;;;19.40;73.98;100673.06;5092682;28;20035;-72
2021/10/04 00:52:54;;;;;;;4.22;3.80;;;;;;;19.40;73.81;100683.53;5092402;28;20024;-72
2021/10/04 00:55:26;;;;;;;5.10;4.68;;;;;;;19.40;73.43;100680.72;5092394;28;20027;-73
2021/10/04 00:57:53;;;;;;;5.20;4.70;;;;;;;19.32;73.36;100674.28;5094183;28;20378;-72
2021/10/04 01:00:23;;;;;;;4.60;4.03;;;;;;;19.29;74.48;100667.47;5093630;28;20063;-72
2021/10/04 01:02:53;;;;;;;5.07;4.65;;;;;;;19.30;74.52;100674.72;5092245;28;20028;-70
2021/10/04 01:05:19;;;;;;;4.70;4.30;;;;;;;19.36;74.43;100672.25;5091979;28;20048;-72
2021/10/04 01:07:45;;;;;;;5.30;4.80;;;;;;;19.37;73.50;100671.03;5092150;28;20111;-73
2021/10/04 01:10:17;;;;;;;4.90;4.43;;;;;;;19.32;74.25;100666.63;5092161;28;20165;-70
2021/10/04 01:12:48;;;;;;;4.53;4.15;;;;;;;19.27;73.48;100664.22;5092215;28;20070;-72
2021/10/04 01:15:15;;;;;;;4.75;4.30;;;;;;;19.20;74.28;100664.28;5075806;28;20202;-70
2021/10/04 01:17:44;;;;;;;5.15;4.75;;;;;;;19.15;74.51;100664.69;5092156;28;20024;-70
2021/10/04 01:20:22;;;;;;;4.93;4.53;;;;;;;19.21;74.83;100668.69;5092667;28;20028;-71
2021/10/04 01:22:49;;;;;;;4.57;4.22;;;;;;;19.05;74.73;100635.31;5094244;28;20024;-72
2021/10/04 01:25:18;;;;;;;4.60;4.22;;;;;;;19.26;73.98;100667.47;5092382;28;20039;-71
2021/10/04 01:27:48;;;;;;;6.15;4.85;;;;;;;19.26;74.04;100668.28;5092581;28;20110;-69
2021/10/04 01:30:19;;;;;;;4.43;4.13;;;;;;;19.27;73.58;100663.44;5092287;28;20032;-70
2021/10/04 01:32:46;;;;;;;5.03;4.53;;;;;;;19.26;73.75;100662.63;5092020;28;20055;-72
2021/10/04 01:35:17;;;;;;;4.35;3.95;;;;;;;19.18;73.71;100663.91;5092287;28;20139;-70
2021/10/04 01:37:43;;;;;;;4.57;4.22;;;;;;;19.15;74.21;100661.06;5093856;28;20409;-70
2021/10/04 01:40:16;;;;;;;4.10;3.80;;;;;;;19.14;74.20;100657.47;5093434;28;20081;-71
2021/10/04 01:42:43;;;;;;;5.07;4.32;;;;;;;19.15;74.47;100650.59;5093781;28;20463;-71
2021/10/04 01:45:24;;;;;;;5.07;4.57;;;;;;;19.19;73.63;100657.03;5092220;28;20059;-70
2021/10/04 01:47:50;;;;;;;5.10;4.70;;;;;;;19.16;73.84;100645.75;5093292;28;20064;-71
2021/10/04 01:50:19;;;;;;;4.95;4.05;;;;;;;19.20;73.84;100646.56;5095919;28;20032;-73
2021/10/04 01:52:47;;;;;;;4.53;4.10;;;;;;;19.16;73.65;100640.91;5095626;28;20024;-72
2021/10/04 01:55:17;;;;;;;4.47;4.18;;;;;;;19.13;73.55;100647.41;5095721;28;20494;-72
2021/10/04 01:57:45;;;;;;;4.80;4.40;;;;;;;19.17;74.18;100647.34;5095480;28;20024;-70
2021/10/04 02:00:16;;;;;;;4.68;4.35;;;;;;;19.12;74.62;100651.41;5095949;28;20028;-71
2021/10/04 02:02:52;;;;;;;5.32;4.70;;;;;;;19.12;72.76;100645.75;5095943;28;20369;-72
2021/10/04 02:05:20;;;;;;;4.95;4.55;;;;;;;19.09;73.44;100641.75;5095440;28;20056;-71
2021/10/04 02:07:50;;;;;;;4.70;4.30;;;;;;;19.07;74.04;100643.41;5095134;28;20024;-72
2021/10/04 02:10:20;;;;;;;4.72;4.25;;;;;;;19.07;73.50;100637.75;5095944;28;20051;-72
2021/10/04 02:12:46;;;;;;;6.70;6.13;;;;;;;19.08;74.14;100636.53;5095738;28;20493;-70
2021/10/04 02:15:15;;;;;;;13.77;12.43;;;;;;;19.08;73.44;100628.06;5095204;28;20062;-69
2021/10/04 02:17:40;;;;;;;16.92;15.40;;;;;;;19.06;74.28;100627.66;5095357;28;20474;-72
2021/10/04 02:20:12;;;;;;;12.48;11.27;;;;;;;19.04;72.87;100624.47;5094968;28;20039;-70
2021/10/04 02:22:39;;;;;;;9.18;8.38;;;;;;;19.01;72.89;100637.34;5094569;28;20382;-71
2021/10/04 02:25:05;;;;;;;7.22;6.63;;;;;;;19.02;73.63;100635.38;5096070;28;20028;-70
2021/10/04 02:27:33;;;;;;;8.80;8.10;;;;;;;19.00;73.51;100632.94;5094654;28;20030;-71
2021/10/04 02:30:00;;;;;;;8.30;7.60;;;;;;;18.95;73.07;100636.16;5094686;28;20186;-71
2021/10/04 02:32:26;;;;;;;7.30;6.70;;;;;;;18.93;72.83;100632.97;5094814;28;20034;-72
2021/10/04 02:34:54;;;;;;;7.05;6.45;;;;;;;18.91;73.12;100640.22;5094783;28;20115;-69
2021/10/04 02:37:22;;;;;;;5.93;5.53;;;;;;;18.83;73.72;100637.44;5094737;28;20497;-71
2021/10/04 02:39:47;;;;;;;9.48;8.48;;;;;;;18.84;73.33;100644.69;5094957;28;20433;-69
2021/10/04 02:42:19;;;;;;;8.50;7.68;;;;;;;18.79;73.11;100639.44;5095283;28;20028;-71
2021/10/04 02:44:47;;;;;;;7.85;7.15;;;;;;;18.74;74.20;100631.41;5094369;28;20085;-71
2021/10/04 02:47:18;;;;;;;8.48;7.70;;;;;;;18.78;74.63;100642.69;5095013;28;20117;-70
2021/10/04 02:49:49;;;;;;;17.15;15.52;;;;;;;18.74;74.07;100637.06;5095248;28;20054;-71
2021/10/04 02:52:18;;;;;;;19.15;17.27;;;;;;;18.80;74.23;100638.28;5094266;28;20116;-70
2021/10/04 02:54:44;;;;;;;35.58;31.98;;;;;;;18.83;73.70;100631.78;5094129;28;20035;-68
2021/10/04 02:57:15;;;;;;;16.25;14.63;;;;;;;18.84;73.76;100633.41;5094881;28;20448;-70
2021/10/04 02:59:41;;;;;;;10.57;9.35;;;;;;;18.80;72.96;100629.81;5093360;28;20114;-71
2021/10/04 03:02:09;;;;;;;11.70;10.60;;;;;;;18.70;73.32;100630.66;5093962;28;20059;-69
2021/10/04 03:04:35;;;;;;;12.57;11.38;;;;;;;18.69;74.58;100640.28;5095060;28;20078;-70
2021/10/04 03:07:00;;;;;;;13.00;11.65;;;;;;;18.71;74.79;100637.88;5097197;28;20023;-70
2021/10/04 03:09:29;;;;;;;24.02;19.98;;;;;;;18.70;74.30;100635.47;5097176;28;20024;-72
2021/10/04 03:11:57;;;;;;;15.73;14.18;;;;;;;18.67;73.29;100630.63;5097134;28;20023;-72
2021/10/04 03:14:26;;;;;;;17.60;15.90;;;;;;;18.67;74.12;100631.41;5097430;28;20036;-73
2021/10/04 03:16:54;;;;;;;25.05;22.70;;;;;;;18.66;74.54;100629.81;5097235;28;20028;-71
2021/10/04 03:19:23;;;;;;;25.67;23.15;;;;;;;18.73;73.62;100623.38;5097284;28;20024;-70
2021/10/04 03:21:49;;;;;;;19.98;17.98;;;;;;;18.69;73.70;100616.94;5097629;28;20503;-72
2021/10/04 03:24:18;;;;;;;16.80;15.15;;;;;;;18.66;73.96;100617.75;5097170;28;20104;-70
2021/10/04 03:26:46;;;;;;;13.45;12.02;;;;;;;18.64;73.93;100617.31;5097873;28;20027;-72
2021/10/04 03:29:16;;;;;;;10.68;9.68;;;;;;;18.61;73.43;100615.34;5097327;28;20032;-72
2021/10/04 03:31:43;;;;;;;14.00;12.80;;;;;;;18.62;73.71;100616.94;5097560;28;20034;-70
2021/10/04 03:34:12;;;;;;;13.00;11.70;;;;;;;18.61;73.95;100616.16;5096969;28;20032;-72
2021/10/04 03:36:41;;;;;;;15.90;14.35;;;;;;;18.57;73.86;100618.97;5096958;28;20062;-71
2021/10/04 03:39:10;;;;;;;13.30;12.10;;;;;;;18.58;74.30;100622.59;5097186;28;20050;-70
2021/10/04 03:41:36;;;;;;;11.80;10.73;;;;;;;18.64;73.58;100620.16;5097090;28;20050;-70
2021/10/04 03:44:05;;;;;;;14.23;12.80;;;;;;;18.74;73.03;100622.16;5097061;28;20461;-72
2021/10/04 03:46:37;;;;;;;13.73;12.32;;;;;;;18.74;72.85;100619.34;5096705;28;20027;-72
2021/10/04 03:49:05;;;;;;;17.98;15.27;;;;;;;18.74;73.43;100628.59;5097526;28;20420;-72
2021/10/04 03:51:33;;;;;;;20.80;17.70;;;;;;;18.68;73.42;100626.63;5096640;28;20023;-73
2021/10/04 03:54:01;;;;;;;14.40;11.57;;;;;;;18.68;71.92;100620.97;5096690;28;20028;-72
2021/10/04 03:56:27;;;;;;;9.02;8.20;;;;;;;18.70;72.35;100625.00;5096595;28;20047;-71
2021/10/04 03:58:55;;;;;;;6.40;5.72;;;;;;;18.68;72.64;100630.22;5097080;28;20070;-70
2021/10/04 04:01:20;;;;;;;12.32;7.10;;;;;;;18.64;73.07;100632.22;5096478;28;20027;-73
2021/10/04 04:03:52;;;;;;;6.18;5.53;;;;;;;18.54;72.70;100639.53;5096309;28;20038;-70
2021/10/04 04:06:21;;;;;;;4.88;4.47;;;;;;;18.48;72.50;100629.88;5095789;28;20143;-72
2021/10/04 04:08:55;;;;;;;5.50;4.60;;;;;;;18.55;72.10;100632.66;5096652;28;20568;-72
2021/10/04 04:11:24;;;;;;;5.22;4.72;;;;;;;18.54;72.12;100635.91;5096091;28;20130;-72
2021/10/04 04:13:52;;;;;;;4.97;4.53;;;;;;;18.49;72.35;100636.31;5096263;28;20030;-72
2021/10/04 04:16:21;;;;;;;4.55;4.15;;;;;;;18.49;72.57;100637.13;5096159;28;20092;-72
2021/10/04 04:18:49;;;;;;;7.43;6.07;;;;;;;18.41;72.83;100640.34;5114623;28;20063;-71
2021/10/04 04:21:14;;;;;;;4.95;4.55;;;;;;;18.40;72.59;100638.75;5096618;28;20035;-71
2021/10/04 04:23:43;;;;;;;7.00;4.68;;;;;;;18.43;72.48;100646.34;5096263;28;20549;-71
2021/10/04 04:26:11;;;;;;;4.35;3.95;;;;;;;18.42;72.67;100648.38;5096351;28;20028;-73
2021/10/04 04:28:40;;;;;;;5.65;4.57;;;;;;;18.35;73.28;100642.78;5096289;28;20024;-72
2021/10/04 04:31:06;;;;;;;5.03;4.55;;;;;;;18.36;73.00;100649.19;5096565;28;20031;-70
2021/10/04 04:33:34;;;;;;;6.03;4.78;;;;;;;18.36;73.76;100649.19;5096261;28;20046;-72
2021/10/04 04:36:02;;;;;;;5.32;4.93;;;;;;;18.35;73.95;100642.78;5114299;28;20031;-71
2021/10/04 04:38:39;;;;;;;5.28;4.78;;;;;;;18.37;74.10;100645.97;5095979;28;20023;-72
2021/10/04 04:41:10;;;;;;;5.00;4.50;;;;;;;18.41;73.09;100654.44;5095963;28;20024;-72
2021/10/04 04:43:38;;;;;;;4.75;4.35;;;;;;;18.45;72.16;100643.97;5113882;28;20027;-72
2021/10/04 04:46:07;;;;;;;4.82;4.43;;;;;;;18.44;72.68;100645.19;5095813;28;20490;-70
2021/10/04 04:48:35;;;;;;;6.50;4.20;;;;;;;18.51;72.48;100643.13;5095740;28;20028;-70
2021/10/04 04:51:06;;;;;;;5.20;4.65;;;;;;;18.50;72.96;100649.19;5114324;28;20073;-71
2021/10/04 04:53:37;;;;;;;4.90;4.40;;;;;;;18.59;72.35;100658.84;5096581;28;20479;-71
2021/10/04 04:56:08;;;;;;;5.40;4.90;;;;;;;18.54;72.80;100652.81;5095956;28;20024;-71
2021/10/04 04:58:36;;;;;;;6.68;4.47;;;;;;;18.54;73.07;100661.25;5096475;28;20108;-73
2021/10/04 05:01:04;;;;;;;6.32;4.25;;;;;;;18.48;72.95;100655.22;5096389;28;20107;-72
2021/10/04 05:03:30;;;;;;;8.00;4.85;;;;;;;18.51;73.32;100656.41;5094983;28;20024;-72
2021/10/04 05:05:58;;;;;;;5.78;5.28;;;;;;;18.57;73.17;100654.78;5095119;28;20075;-71
2021/10/04 05:08:28;;;;;;;4.68;4.28;;;;;;;18.59;73.10;100663.66;5095460;28;20055;-70
2021/10/04 05:10:53;;;;;;;6.13;4.75;;;;;;;18.66;73.04;100658.00;5095325;28;20028;-72
2021/10/04 05:13:22;;;;;;;4.55;4.15;;;;;;;18.68;72.23;100652.78;5095442;28;20086;-70
2021/10/04 05:15:47;;;;;;;5.95;4.68;;;;;;;18.94;71.95;100650.69;5095395;28;20118;-72
2021/10/04 05:18:18;;;;;;;7.25;4.47;;;;;;;19.28;71.02;100648.94;5095904;28;20093;-72
2021/10/04 05:20:47;;;;;;;5.07;4.57;;;;;;;19.67;69.09;100650.72;5095723;28;20031;-70
2021/10/04 05:23:16;;;;;;;4.95;4.55;;;;;;;20.08;67.81;100647.16;5096156;28;20023;-70
2021/10/04 05:25:45;;;;;;;4.80;4.00;;;;;;;20.46;65.80;100647.25;5099225;28;20028;-72
2021/10/04 05:28:12;;;;;;;6.00;4.70;;;;;;;20.89;64.38;100656.88;5099538;28;20027;-70
2021/10/04 05:30:37;;;;;;;11.65;8.27;;;;;;;21.33;63.74;100657.97;5098851;28;20030;-72
2021/10/04 05:33:09;;;;;;;38.53;28.23;;;;;;;21.74;61.71;100645.66;5099561;28;20028;-72
2021/10/04 05:35:35;;;;;;;52.88;40.53;;;;;;;22.19;60.54;100653.84;5099386;28;20028;-71
2021/10/04 05:38:04;;;;;;;61.58;49.42;;;;;;;22.56;59.33;100657.63;5098601;28;20051;-71
2021/10/04 05:40:30;;;;;;;33.92;29.58;;;;;;;22.91;57.60;100667.53;5098904;28;20031;-72
2021/10/04 05:42:59;;;;;;;19.80;16.80;;;;;;;23.24;56.49;100668.47;5098891;28;20024;-73
2021/10/04 05:45:27;;;;;;;14.02;11.45;;;;;;;23.62;55.68;100670.84;5098811;28;20524;-72
2021/10/04 05:47:56;;;;;;;10.27;8.60;;;;;;;23.98;54.62;100668.00;5098673;28;20381;-73
2021/10/04 05:50:22;;;;;;;6.72;6.03;;;;;;;24.42;53.41;100669.34;5098901;28;20378;-72
2021/10/04 05:52:53;;;;;;;7.00;6.05;;;;;;;24.77;51.91;100661.09;5098186;28;20497;-71
2021/10/04 05:55:19;;;;;;;6.10;5.60;;;;;;;25.15;50.71;100666.94;5098105;28;20062;-70
2021/10/04 05:57:44;;;;;;;6.18;5.50;;;;;;;25.57;50.21;100664.84;5098614;28;20022;-70
2021/10/04 06:00:12;;;;;;;6.30;5.70;;;;;;;25.85;48.96;100676.59;5097935;28;20028;-72
2021/10/04 06:02:43;;;;;;;11.20;6.70;;;;;;;26.20;48.23;100673.81;5098681;28;20473;-72
2021/10/04 06:05:13;;;;;;;7.75;5.72;;;;;;;26.34;47.65;100684.75;5090809;28;20059;-71
2021/10/04 06:07:38;;;;;;;5.35;4.85;;;;;;;26.77;47.25;100684.06;5094939;28;20020;-70
2021/10/04 06:10:11;;;;;;;6.22;4.72;;;;;;;26.65;46.42;100679.22;5094804;28;20035;-71
2021/10/04 06:12:42;;;;;;;7.97;6.22;;;;;;;26.68;45.77;100675.44;5096208;28;20046;-70
2021/10/04 06:15:14;;;;;;;7.40;5.60;;;;;;;26.59;46.90;100678.22;5094889;28;20024;-70
2021/10/04 06:17:40;;;;;;;7.75;5.88;;;;;;;25.71;49.89;100677.03;5094737;28;20036;-70
2021/10/04 06:20:07;;;;;;;8.00;5.63;;;;;;;25.88;48.39;100675.69;5094619;28;20032;-71
2021/10/04 06:22:33;;;;;;;5.20;4.70;;;;;;;25.99;48.87;100681.03;5095506;28;20024;-71
2021/10/04 06:24:59;;;;;;;5.93;4.43;;;;;;;26.15;48.72;100677.25;5094716;28;20409;-71
2021/10/04 06:27:27;;;;;;;7.03;4.22;;;;;;;26.26;47.62;100684.22;5093811;28;20052;-73
2021/10/04 06:29:53;;;;;;;5.72;4.28;;;;;;;27.02;46.43;100683.16;5094440;28;20462;-72
2021/10/04 06:32:18;;;;;;;4.75;4.35;;;;;;;27.30;46.48;100680.53;5094678;28;20089;-74
2021/10/04 06:34:44;;;;;;;7.38;4.55;;;;;;;27.83;45.17;100677.66;5094276;28;20028;-72
2021/10/04 06:37:12;;;;;;;4.68;4.18;;;;;;;28.25;43.64;100685.72;5094851;28;20035;-72
2021/10/04 06:39:38;;;;;;;4.97;3.78;;;;;;;28.62;43.27;100686.63;5094582;28;20507;-72
2021/10/04 06:42:06;;;;;;;3.95;3.58;;;;;;;28.95;42.19;100689.66;5094409;28;20134;-72
2021/10/04 06:44:38;;;;;;;6.68;3.53;;;;;;;29.19;41.80;100690.59;5094049;28;20546;-73
2021/10/04 06:47:08;;;;;;;6.38;3.90;;;;;;;29.46;41.35;100692.63;5094203;28;20111;-71
2021/10/04 06:49:35;;;;;;;5.25;4.55;;;;;;;29.60;41.01;100693.22;5094548;28;20028;-73
2021/10/04 06:52:05;;;;;;;4.30;3.90;;;;;;;29.73;40.90;100691.75;5094040;28;20062;-71
2021/10/04 06:54:35;;;;;;;3.65;3.35;;;;;;;29.69;40.43;100696.06;5093993;28;20069;-71
2021/10/04 06:57:01;;;;;;;6.78;3.50;;;;;;;29.90;39.48;100689.28;5094422;28;20088;-73
2021/10/04 06:59:29;;;;;;;3.55;3.25;;;;;;;29.41;40.15;100689.59;5093653;28;20024;-71
2021/10/04 07:01:57;;;;;;;3.25;2.95;;;;;;;29.60;39.92;100691.16;5093605;28;20027;-73
2021/10/04 07:04:23;;;;;;;4.53;2.90;;;;;;;29.70;40.32;100701.31;5094313;28;20050;-72
2021/10/04 07:06:54;;;;;;;3.80;3.13;;;;;;;29.11;40.46;100700.78;5093130;28;20483;-70
2021/10/04 07:09:22;;;;;;;3.55;3.25;;;;;;;29.36;39.41;100695.97;5094239;28;20078;-73
2021/10/04 07:11:50;;;;;;;3.95;3.60;;;;;;;29.93;38.99;100702.66;5093785;28;20031;-71
2021/10/04 07:14:16;;;;;;;4.38;3.95;;;;;;;30.09;38.65;100706.41;5093675;28;20073;-72
2021/10/04 07:16:44;;;;;;;5.18;2.88;;;;;;;29.60;38.96;100699.75;5094124;28;20020;-74
2021/10/04 07:19:13;;;;;;;3.20;2.90;;;;;;;29.09;40.01;100708.28;5093707;28;20035;-72
2021/10/04 07:21:42;;;;;;;3.03;2.83;;;;;;;28.51;40.97;100718.56;5093700;28;20486;-71
2021/10/04 07:24:10;;;;;;;3.42;3.22;;;;;;;29.28;40.12;100712.69;5093676;28;20369;-71
2021/10/04 07:26:41;;;;;;;5.15;2.97;;;;;;;28.38;41.73;100724.41;5093335;28;20036;-73
2021/10/04 07:29:08;;;;;;;3.35;3.03;;;;;;;28.00;42.81;100721.88;5093096;28;20035;-72
2021/10/04 07:31:37;;;;;;;5.30;3.20;;;;;;;27.96;43.13;100726.94;5093066;28;20042;-71
2021/10/04 07:34:06;;;;;;;3.25;2.95;;;;;;;28.04;43.01;100728.25;5093312;28;20075;-73
2021/10/04 07:36:32;;;;;;;5.22;3.05;;;;;;;27.84;43.86;100730.69;5092933;28;20035;-72
2021/10/04 07:39:06;;;;;;;4.10;3.10;;;;;;;28.07;42.96;100733.03;5092860;28;20024;-73
2021/10/04 07:41:32;;;;;;;4.75;3.10;;;;;;;28.06;43.35;100740.00;5093528;28;20103;-72
2021/10/04 07:44:01;;;;;;;3.42;3.20;;;;;;;27.46;45.47;100734.59;5093390;28;20020;-71
2021/10/04 07:46:27;;;;;;;3.70;3.40;;;;;;;27.85;44.37;100735.16;5092152;28;20032;-72
2021/10/04 07:48:55;;;;;;;3.33;3.03;;;;;;;27.60;45.18;100742.63;5093011;28;20057;-70
2021/10/04 07:51:28;;;;;;;3.95;3.42;;;;;;;27.44;44.95;100750.63;5093199;28;20450;-71
2021/10/04 07:53:57;;;;;;;;;;;;;;;27.49;45.83;100738.59;5093680;28;20023;-71
2021/10/04 07:56:28;;;;;;;2.90;2.70;;;;;;;27.55;45.42;100743.22;5093003;28;19914;-73
2021/10/04 07:58:53;;;;;;;2.80;2.53;;;;;;;27.31;45.13;100745.75;5092803;28;20085;-73
2021/10/04 08:01:22;;;;;;;3.75;3.47;;;;;;;27.35;45.40;100751.34;5075644;28;20428;-71
2021/10/04 08:03:48;;;;;;;3.63;3.33;;;;;;;27.89;44.24;100739.47;5092506;28;20024;-72
2021/10/04 08:06:13;;;;;;;4.30;3.55;;;;;;;27.90;43.97;100743.91;5092313;28;20056;-70
2021/10/04 08:08:45;;;;;;;4.45;4.07;;;;;;;27.44;44.66;100737.13;5092715;28;20111;-70
2021/10/04 08:11:14;;;;;;;3.88;3.55;;;;;;;27.07;45.48;100739.72;5089211;28;20034;-73
2021/10/04 08:13:45;;;;;;;2.80;2.60;;;;;;;26.42;47.18;100736.69;5092568;28;20047;-71
2021/10/04 08:16:16;;;;;;;3.83;3.55;;;;;;;26.96;46.71;100742.13;5092599;28;20056;-73
2021/10/04 08:18:45;;;;;;;3.67;3.38;;;;;;;27.42;45.25;100742.50;5092733;28;20024;-72
2021/10/04 08:21:16;;;;;;;4.38;3.30;;;;;;;27.74;44.24;100741.28;5092591;28;20089;-71
2021/10/04 08:23:42;;;;;;;3.05;2.83;;;;;;;28.41;42.48;100739.84;5092371;28;20024;-73
2021/10/04 08:26:14;;;;;;;3.15;2.90;;;;;;;28.22;42.93;100736.09;5093060;28;20036;-71
2021/10/04 08:28:45;;;;;;;3.30;3.10;;;;;;;27.80;43.94;100730.03;5093401;28;20067;-73
2021/10/04 08:31:14;;;;;;;3.90;3.30;;;;;;;28.27;42.55;100728.97;5092871;28;20434;-72
2021/10/04 08:33:40;;;;;;;3.80;3.50;;;;;;;28.05;42.83;100734.75;5092706;28;20193;-70
2021/10/04 08:36:05;;;;;;;3.10;2.78;;;;;;;27.95;42.52;100719.63;5091955;28;20482;-73
2021/10/04 08:38:37;;;;;;;3.70;2.97;;;;;;;27.87;42.35;100726.91;5092363;28;20023;-72
2021/10/04 08:41:04;;;;;;;3.30;2.97;;;;;;;27.97;41.76;100728.56;5092336;28;20035;-73
2021/10/04 08:43:30;;;;;;;3.42;2.97;;;;;;;28.19;41.45;100720.69;5092654;28;20032;-73
2021/10/04 08:45:59;;;;;;;3.17;2.97;;;;;;;28.92;39.77;100722.06;5093683;28;20039;-74
2021/10/04 08:48:26;;;;;;;4.78;2.47;;;;;;;29.16;39.00;100720.19;5092284;28;20489;-71
2021/10/04 08:50:55;;;;;;;2.75;2.55;;;;;;;28.91;39.03;100715.56;5092285;28;20038;-73
2021/10/04 08:53:24;;;;;;;3.00;2.80;;;;;;;28.64;39.79;100727.78;5092587;28;20020;-73
2021/10/04 08:55:50;;;;;;;2.80;2.60;;;;;;;29.69;37.17;100722.66;5092232;28;20032;-73
2021/10/04 08:58:16;;;;;;;2.55;2.35;;;;;;;29.92;36.42;100720.34;5093304;28;20047;-73
2021/10/04 09:00:45;;;;;;;2.92;2.63;;;;;;;29.14;37.48;100728.50;5096608;28;20059;-73
2021/10/04 09:03:14;;;;;;;3.38;3.05;;;;;;;29.37;38.56;100717.63;5096494;28;20040;-73
2021/10/04 09:05:44;;;;;;;4.00;3.40;;;;;;;30.01;36.98;100721.09;5096175;28;20066;-74
2021/10/04 09:08:12;;;;;;;3.92;3.50;;;;;;;29.37;38.84;100731.97;5079809;28;20123;-73
2021/10/04 09:10:49;;;;;;;3.45;3.25;;;;;;;29.68;38.54;100734.63;5096771;28;20051;-71
2021/10/04 09:13:16;;;;;;;4.13;3.47;;;;;;;30.10;37.82;100730.97;5096238;28;20032;-73
2021/10/04 09:15:46;;;;;;;4.18;3.40;;;;;;;30.61;36.61;100727.97;5096348;28;20044;-74
2021/10/04 09:18:19;;;;;;;3.90;3.60;;;;;;;30.03;36.67;100726.34;5096042;28;20032;-73
2021/10/04 09:20:47;;;;;;;;;;;;;;;30.62;36.38;100729.56;5097003;28;20036;-72
2021/10/04 09:23:35;;;;;;;4.70;3.50;;;;;;;31.57;35.02;100724.94;5096714;28;20347;-71
2021/10/04 09:26:08;;;;;;;3.70;3.40;;;;;;;32.02;34.25;100725.72;5096812;28;20462;-72
2021/10/04 09:28:44;;;;;;;4.57;3.45;;;;;;;30.95;36.23;100732.38;5097090;28;20035;-71
2021/10/04 09:31:27;;;;;;;4.45;3.58;;;;;;;31.22;35.10;100719.84;5096483;28;20035;-72
2021/10/04 09:34:00;;;;;;;4.25;3.47;;;;;;;31.87;34.10;100717.09;5096544;28;20386;-73
2021/10/04 09:36:31;;;;;;;4.53;3.45;;;;;;;31.35;33.91;100715.91;5095850;28;20034;-72
2021/10/04 09:39:17;;;;;;;3.72;3.42;;;;;;;30.59;35.34;100718.25;5096385;28;20400;-72
2021/10/04 09:42:06;;;;;;;3.90;3.50;;;;;;;30.10;36.87;100723.16;5096325;28;20028;-72
2021/10/04 09:44:52;;;;;;;3.97;3.58;;;;;;;29.84;37.30;100707.66;5084997;28;20181;-71
2021/10/04 09:47:20;;;;;;;3.90;3.47;;;;;;;30.92;35.11;100723.94;5096361;28;20082;-73
2021/10/04 09:49:47;;;;;;;3.50;3.20;;;;;;;31.91;33.55;100723.47;5095471;28;20034;-71
2021/10/04 09:52:15;;;;;;;3.67;3.38;;;;;;;32.17;33.51;100717.81;5096349;28;20114;-72
2021/10/04 09:54:47;;;;;;;3.53;3.22;;;;;;;31.93;33.43;100720.06;5095787;28;20048;-71
2021/10/04 09:57:21;;;;;;;3.85;3.55;;;;;;;31.37;33.91;100719.06;5095425;28;20516;-72
2021/10/04 09:59:48;;;;;;;3.05;2.85;;;;;;;31.58;34.02;100717.09;5095503;28;20038;-71
2021/10/04 10:02:20;;;;;;;3.70;3.40;;;;;;;31.90;33.59;100721.06;5097204;28;20085;-72
2021/10/04 10:04:50;;;;;;;3.75;3.45;;;;;;;31.97;33.24;100712.03;5099046;28;20031;-72
2021/10/04 10:07:18;;;;;;;3.50;3.20;;;;;;;32.77;31.82;100715.53;5117225;28;20043;-72
2021/10/04 10:09:44;;;;;;;3.63;3.28;;;;;;;31.95;32.79;100700.22;5116064;28;20051;-72
2021/10/04 10:12:13;;;;;;;3.17;2.90;;;;;;;32.57;31.98;100701.91;5098777;28;20062;-72
2021/10/04 10:14:46;;;;;;;5.90;3.55;;;;;;;32.85;31.92;100697.28;5098454;28;20024;-74
2021/10/04 10:17:20;;;;;;;3.60;3.30;;;;;;;32.71;32.00;100703.16;5098443;28;20426;-74
2021/10/04 10:19:48;;;;;;;4.07;3.25;;;;;;;31.71;33.42;100694.59;5098462;28;20038;-75
2021/10/04 10:22:17;;;;;;;2.92;2.72;;;;;;;31.13;34.18;100687.53;5098281;28;20089;-73
2021/10/04 10:24:50;;;;;;;3.22;3.03;;;;;;;31.41;34.25;100690.94;5098821;28;20024;-71
2021/10/04 10:27:19;;;;;;;4.50;4.10;;;;;;;31.10;33.96;100689.28;5116421;28;20027;-73
2021/10/04 10:29:48;;;;;;;3.65;2.80;;;;;;;30.49;34.88;100685.94;5098080;28;20031;-74
2021/10/04 10:32:21;;;;;;;3.85;3.53;;;;;;;29.53;36.08;100674.31;5098100;28;20035;-74
2021/10/04 10:34:47;;;;;;;4.10;3.70;;;;;;;29.33;37.29;100669.06;5098110;28;20020;-71
2021/10/04 10:37:22;;;;;;;3.28;2.97;;;;;;;30.29;35.32;100680.81;5098396;28;20051;-71
2021/10/04 10:39:53;;;;;;;3.97;3.30;;;;;;;29.62;36.15;100682.88;5097878;28;20028;-73
2021/10/04 10:42:33;;;;;;;4.57;3.08;;;;;;;29.61;36.68;100674.75;5097925;28;20119;-74
2021/10/04 10:45:04;;;;;;;3.83;3.53;;;;;;;28.75;38.40;100678.66;5116165;28;20493;-73
2021/10/04 10:47:33;;;;;;;3.97;3.67;;;;;;;28.61;39.62;100676.44;5097726;28;20376;-72
2021/10/04 10:50:15;;;;;;;5.32;3.63;;;;;;;28.87;38.80;100665.44;5098422;28;20032;-72
2021/10/04 10:53:01;;;;;;;3.78;3.40;;;;;;;28.54;39.00;100668.94;5097620;28;20023;-71
2021/10/04 10:55:40;;;;;;;3.72;3.47;;;;;;;27.92;40.41;100666.25;5097630;28;20164;-74
2021/10/04 10:58:13;;;;;;;7.47;4.32;;;;;;;27.26;41.90;100657.00;5097583;28;20031;-72
2021/10/04 11:00:39;;;;;;;4.03;3.63;;;;;;;26.98;42.85;100659.66;5097739;28;20036;-71
2021/10/04 11:03:25;;;;;;;4.30;3.65;;;;;;;27.08;42.88;100649.94;5097387;28;20500;-72
2021/10/04 11:06:06;;;;;;;3.88;3.58;;;;;;;27.98;40.81;100660.72;5097210;28;20047;-73
2021/10/04 11:08:34;;;;;;;4.50;4.10;;;;;;;28.29;39.57;100617.72;5097214;28;20466;-71
2021/10/04 11:11:06;;;;;;;4.45;4.05;;;;;;;28.08;41.30;100650.88;5097592;28;20474;-73
2021/10/04 11:13:38;;;;;;;4.30;4.00;;;;;;;27.84;41.81;100640.00;5097487;28;20038;-72
2021/10/04 11:16:09;;;;;;;4.30;3.90;;;;;;;28.66;40.00;100641.44;5097106;28;20023;-73
2021/10/04 11:18:53;;;;;;;6.80;4.15;;;;;;;28.56;40.41;100649.25;5096243;28;20067;-72
2021/10/04 11:21:24;;;;;;;3.67;3.38;;;;;;;28.19;40.97;100637.72;5096187;28;20031;-74
2021/10/04 11:24:10;;;;;;;4.55;4.20;;;;;;;28.23;40.51;100633.88;5115208;28;20571;-74
2021/10/04 11:26:39;;;;;;;5.65;4.60;;;;;;;27.86;41.58;100631.75;5096833;28;20034;-72
2021/10/04 11:29:11;;;;;;;4.57;4.18;;;;;;;27.91;41.22;100624.59;5115341;28;20030;-71
2021/10/04 11:31:44;;;;;;;3.75;3.30;;;;;;;27.91;40.16;100633.19;5097136;28;20149;-71
2021/10/04 11:34:15;;;;;;;4.00;3.70;;;;;;;28.37;39.68;100624.72;5097500;28;20496;-70